createdAt,value
2017-10-05T00:00:58.774Z,0
2017-10-05T00:01:58.444Z,0
2017-10-05T00:02:58.747Z,0
2017-10-05T00:03:58.736Z,0
2017-10-05T00:04:57.750Z,0
2017-10-05T00:05:58.375Z,0
2017-10-05T00:06:58.038Z,0
2017-10-05T00:07:58.347Z,0
2017-10-05T00:08:58.649Z,0
2017-10-05T00:09:58.638Z,0
2017-10-05T00:10:58.505Z,0
2017-10-05T00:11:57.966Z,0
2017-10-05T00:12:57.944Z,0
2017-10-05T00:13:58.896Z,0
2017-10-05T00:14:58.230Z,0
2017-10-05T00:15:58.217Z,0
2017-10-05T00:16:58.849Z,0
2017-10-05T00:17:58.191Z,0
2017-10-05T00:18:58.497Z,0
2017-10-05T00:19:57.832Z,0
2017-10-05T00:20:58.451Z,0
2017-10-05T00:21:58.437Z,0
2017-10-05T00:22:58.105Z,0
2017-10-05T00:23:58.410Z,0
2017-10-05T00:24:58.392Z,0
2017-10-05T00:25:58.058Z,0
2017-10-05T00:26:58.684Z,0
2017-10-05T00:27:58.347Z,0
2017-10-05T00:28:58.008Z,0
2017-10-05T00:30:34.793Z,0
2017-10-05T00:30:57.649Z,0
2017-10-05T00:31:57.960Z,0
2017-10-05T00:32:57.945Z,0
2017-10-05T00:33:57.612Z,0
2017-10-05T00:34:57.591Z,0
2017-10-05T00:35:57.565Z,0
2017-10-05T00:36:58.202Z,0
2017-10-05T00:37:57.856Z,0
2017-10-05T00:38:57.525Z,0
2017-10-05T00:39:57.189Z,0
2017-10-05T00:40:57.487Z,0
2017-10-05T00:41:58.115Z,0
2017-10-05T00:42:57.455Z,0
2017-10-05T00:43:58.077Z,0
2017-10-05T00:44:58.064Z,0
2017-10-05T00:45:58.042Z,0
2017-10-05T00:46:57.711Z,0
2017-10-05T00:47:57.697Z,0
2017-10-05T00:48:57.671Z,0
2017-10-05T00:49:57.668Z,0
2017-10-05T00:50:58.297Z,0
2017-10-05T00:51:57.630Z,0
2017-10-05T00:52:58.267Z,0
2017-10-05T00:53:58.236Z,0
2017-10-05T00:54:57.580Z,0
2017-10-05T00:55:57.889Z,0
2017-10-05T00:56:58.188Z,0
2017-10-05T00:57:57.527Z,0
2017-10-05T00:58:57.195Z,0
2017-10-05T00:59:57.825Z,0
2017-10-05T01:00:57.485Z,0
2017-10-05T01:01:57.146Z,0
2017-10-05T01:02:57.457Z,0
2017-10-05T01:03:57.755Z,0
2017-10-05T01:04:57.415Z,0
2017-10-05T01:05:58.051Z,0
2017-10-05T01:06:58.038Z,0
2017-10-05T01:07:58.010Z,0
2017-10-05T01:08:57.366Z,0
2017-10-05T01:09:56.695Z,0
2017-10-05T01:10:57.314Z,0
2017-10-05T01:11:57.294Z,0
2017-10-05T01:12:57.280Z,0
2017-10-05T01:13:57.273Z,0
2017-10-05T01:14:57.581Z,0
2017-10-05T01:15:57.565Z,0
2017-10-05T01:16:57.866Z,0
2017-10-05T01:17:57.200Z,0
2017-10-05T01:18:57.185Z,0
2017-10-05T01:19:57.169Z,0
2017-10-05T01:20:57.801Z,0
2017-10-05T01:21:56.829Z,0
2017-10-05T01:22:57.762Z,0
2017-10-05T01:23:57.435Z,0
2017-10-05T01:24:56.769Z,0
2017-10-05T01:25:57.066Z,0
2017-10-05T01:26:57.705Z,0
2017-10-05T01:27:57.041Z,0
2017-10-05T01:28:57.725Z,0
2017-10-05T01:29:57.008Z,0
2017-10-05T01:30:56.993Z,0
2017-10-05T01:31:57.293Z,0
2017-10-05T01:32:56.965Z,0
2017-10-05T01:33:57.257Z,0
2017-10-05T01:34:56.929Z,0
2017-10-05T01:35:56.589Z,0
2017-10-05T01:36:56.572Z,0
2017-10-05T01:37:57.196Z,0
2017-10-05T01:38:56.541Z,0
2017-10-05T01:39:57.156Z,0
2017-10-05T01:40:57.151Z,0
2017-10-05T01:41:56.809Z,0
2017-10-05T01:42:57.433Z,0
2017-10-05T01:43:57.093Z,0
2017-10-05T01:44:56.759Z,0
2017-10-05T01:45:57.399Z,0
2017-10-05T01:46:57.050Z,0
2017-10-05T01:47:56.072Z,0
2017-10-05T01:48:56.701Z,0
2017-10-05T01:49:56.684Z,0
2017-10-05T01:50:56.985Z,0
2017-10-05T01:51:56.641Z,0
2017-10-05T01:52:56.641Z,0
2017-10-05T01:53:56.936Z,0
2017-10-05T01:54:56.607Z,0
2017-10-05T01:55:56.262Z,0
2017-10-05T01:56:56.585Z,0
2017-10-05T01:57:56.863Z,0
2017-10-05T01:58:55.916Z,0
2017-10-05T01:59:56.189Z,0
2017-10-05T02:00:56.817Z,0
2017-10-05T02:01:56.812Z,0
2017-10-05T02:02:56.497Z,0
2017-10-05T02:03:56.470Z,0
2017-10-05T02:04:56.769Z,0
2017-10-05T02:05:56.093Z,0
2017-10-05T02:06:56.098Z,0
2017-10-05T02:07:56.054Z,0
2017-10-05T02:08:57.015Z,0
2017-10-05T02:09:56.742Z,0
2017-10-05T02:10:57.270Z,0
2017-10-05T02:11:55.986Z,0
2017-10-05T02:12:56.940Z,0
2017-10-05T02:13:56.278Z,0
2017-10-05T02:14:55.953Z,0
2017-10-05T02:15:56.572Z,0
2017-10-05T02:16:56.240Z,0
2017-10-05T02:17:56.237Z,0
2017-10-05T02:18:56.841Z,0
2017-10-05T02:19:55.877Z,0
2017-10-05T02:20:55.842Z,0
2017-10-05T02:21:56.152Z,0
2017-10-05T02:22:56.456Z,0
2017-10-05T02:23:56.124Z,0
2017-10-05T02:24:55.789Z,0
2017-10-05T02:25:56.095Z,0
2017-10-05T02:26:55.749Z,0
2017-10-05T02:27:56.381Z,0
2017-10-05T02:28:56.363Z,0
2017-10-05T02:29:56.025Z,0
2017-10-05T02:30:56.340Z,0
2017-10-05T02:31:56.331Z,0
2017-10-05T02:32:56.617Z,0
2017-10-05T02:33:56.295Z,0
2017-10-05T02:34:55.621Z,0
2017-10-05T02:35:55.600Z,0
2017-10-05T02:36:56.551Z,0
2017-10-05T02:37:55.895Z,0
2017-10-05T02:38:55.558Z,0
2017-10-05T02:39:55.535Z,0
2017-10-05T02:40:56.166Z,0
2017-10-05T02:41:56.148Z,0
2017-10-05T02:42:56.473Z,0
2017-10-05T02:43:56.117Z,0
2017-10-05T02:44:55.778Z,0
2017-10-05T02:45:56.086Z,0
2017-10-05T02:46:55.745Z,0
2017-10-05T02:47:56.370Z,0
2017-10-05T02:48:55.717Z,0
2017-10-05T02:49:56.337Z,0
2017-10-05T02:50:55.358Z,0
2017-10-05T02:51:55.980Z,0
2017-10-05T02:52:56.006Z,0
2017-10-05T02:53:55.632Z,0
2017-10-05T02:54:55.296Z,0
2017-10-05T02:55:55.921Z,0
2017-10-05T02:56:55.578Z,0
2017-10-05T02:57:55.566Z,0
2017-10-05T02:58:54.904Z,0
2017-10-05T02:59:55.211Z,0
2017-10-05T03:00:55.839Z,0
2017-10-05T03:01:55.824Z,0
2017-10-05T03:02:55.481Z,0
2017-10-05T03:03:55.478Z,0
2017-10-05T03:04:55.135Z,0
2017-10-05T03:05:55.759Z,0
2017-10-05T03:06:56.051Z,0
2017-10-05T03:07:55.712Z,0
2017-10-05T03:08:55.698Z,0
2017-10-05T03:09:55.364Z,0
2017-10-05T03:10:55.667Z,0
2017-10-05T03:11:55.647Z,0
2017-10-05T03:12:55.315Z,0
2017-10-05T03:13:55.634Z,0
2017-10-05T03:14:55.928Z,0
2017-10-05T03:15:55.909Z,0
2017-10-05T03:16:54.928Z,0
2017-10-05T03:17:55.231Z,0
2017-10-05T03:18:55.217Z,0
2017-10-05T03:19:55.510Z,0
2017-10-05T03:20:55.499Z,0
2017-10-05T03:21:55.166Z,0
2017-10-05T03:22:55.152Z,0
2017-10-05T03:23:55.128Z,0
2017-10-05T03:24:55.436Z,0
2017-10-05T03:25:54.774Z,0
2017-10-05T03:26:54.442Z,0
2017-10-05T03:27:55.070Z,0
2017-10-05T03:28:55.699Z,0
2017-10-05T03:29:55.038Z,0
2017-10-05T03:30:55.082Z,0
2017-10-05T03:31:55.007Z,0
2017-10-05T03:32:54.987Z,0
2017-10-05T03:33:55.290Z,0
2017-10-05T03:34:54.953Z,0
2017-10-05T03:35:54.616Z,0
2017-10-05T03:36:54.600Z,0
2017-10-05T03:37:54.915Z,0
2017-10-05T03:38:55.207Z,0
2017-10-05T03:39:55.197Z,0
2017-10-05T03:40:54.847Z,0
2017-10-05T03:41:55.155Z,0
2017-10-05T03:42:54.500Z,0
2017-10-05T03:43:55.126Z,0
2017-10-05T03:44:54.785Z,0
2017-10-05T03:45:54.769Z,0
2017-10-05T03:46:54.440Z,0
2017-10-05T03:47:54.409Z,0
2017-10-05T03:48:54.719Z,0
2017-10-05T03:49:54.730Z,0
2017-10-05T03:50:54.688Z,0
2017-10-05T03:51:54.992Z,0
2017-10-05T03:52:54.336Z,0
2017-10-05T03:53:54.312Z,0
2017-10-05T03:54:54.950Z,0
2017-10-05T03:55:54.925Z,0
2017-10-05T03:56:55.249Z,0
2017-10-05T03:57:54.886Z,0
2017-10-05T03:58:55.207Z,0
2017-10-05T03:59:54.864Z,0
2017-10-05T04:00:54.206Z,0
2017-10-05T04:01:54.822Z,0
2017-10-05T04:02:54.166Z,0
2017-10-05T04:03:54.809Z,0
2017-10-05T04:04:54.462Z,0
2017-10-05T04:05:55.079Z,0
2017-10-05T04:06:54.738Z,0
2017-10-05T04:07:54.728Z,0
2017-10-05T04:08:54.401Z,0
2017-10-05T04:09:54.684Z,0
2017-10-05T04:10:54.553Z,0
2017-10-05T04:11:54.218Z,0
2017-10-05T04:12:54.321Z,0
2017-10-05T04:13:54.623Z,0
2017-10-05T04:14:53.646Z,0
2017-10-05T04:15:54.593Z,0
2017-10-05T04:16:54.249Z,0
2017-10-05T04:17:54.896Z,0
2017-10-05T04:18:54.221Z,0
2017-10-05T04:19:53.882Z,0
2017-10-05T04:20:54.189Z,0
2017-10-05T04:21:54.823Z,0
2017-10-05T04:22:54.484Z,0
2017-10-05T04:23:54.152Z,0
2017-10-05T04:24:54.769Z,0
2017-10-05T04:25:54.425Z,0
2017-10-05T04:26:54.458Z,0
2017-10-05T04:27:54.080Z,0
2017-10-05T04:28:54.057Z,0
2017-10-05T04:29:54.042Z,0
2017-10-05T04:30:54.353Z,0
2017-10-05T04:31:54.659Z,0
2017-10-05T04:32:54.307Z,0
2017-10-05T04:33:53.974Z,0
2017-10-05T04:34:54.596Z,0
2017-10-05T04:35:54.581Z,0
2017-10-05T04:36:54.297Z,0
2017-10-05T04:37:53.582Z,0
2017-10-05T04:38:53.888Z,0
2017-10-05T04:39:53.881Z,0
2017-10-05T04:40:54.190Z,0
2017-10-05T04:41:53.529Z,0
2017-10-05T04:42:53.506Z,0
2017-10-05T04:43:54.136Z,0
2017-10-05T04:44:53.798Z,0
2017-10-05T04:45:53.770Z,0
2017-10-05T04:46:53.757Z,0
2017-10-05T04:47:54.074Z,0
2017-10-05T04:48:54.050Z,0
2017-10-05T04:49:53.713Z,0
2017-10-05T04:50:54.337Z,0
2017-10-05T04:51:53.355Z,0
2017-10-05T04:52:53.666Z,0
2017-10-05T04:53:53.959Z,0
2017-10-05T04:54:52.989Z,0
2017-10-05T04:55:52.969Z,0
2017-10-05T04:56:54.268Z,0
2017-10-05T04:57:53.910Z,0
2017-10-05T04:58:53.238Z,0
2017-10-05T04:59:53.859Z,0
2017-10-05T05:00:53.530Z,0
2017-10-05T05:01:53.835Z,0
2017-10-05T05:02:53.825Z,0
2017-10-05T05:03:54.123Z,0
2017-10-05T05:04:54.099Z,0
2017-10-05T05:05:53.122Z,0
2017-10-05T05:06:52.790Z,0
2017-10-05T05:07:53.760Z,0
2017-10-05T05:08:54.047Z,0
2017-10-05T05:09:53.390Z,0
2017-10-05T05:10:53.689Z,0
2017-10-05T05:11:53.359Z,0
2017-10-05T05:12:53.387Z,0
2017-10-05T05:13:53.641Z,0
2017-10-05T05:14:53.302Z,0
2017-10-05T05:15:53.604Z,0
2017-10-05T05:16:53.586Z,0
2017-10-05T05:17:53.568Z,0
2017-10-05T05:18:53.231Z,0
2017-10-05T05:19:53.211Z,0
2017-10-05T05:20:52.560Z,0
2017-10-05T05:21:52.863Z,0
2017-10-05T05:22:52.896Z,0
2017-10-05T05:23:53.474Z,0
2017-10-05T05:24:53.453Z,0
2017-10-05T05:25:53.128Z,0
2017-10-05T05:26:53.425Z,0
2017-10-05T05:27:53.078Z,0
2017-10-05T05:28:53.385Z,0
2017-10-05T05:29:53.048Z,0
2017-10-05T05:30:53.677Z,0
2017-10-05T05:31:52.708Z,0
2017-10-05T05:32:53.324Z,0
2017-10-05T05:33:52.988Z,0
2017-10-05T05:34:53.614Z,0
2017-10-05T05:35:52.956Z,0
2017-10-05T05:36:52.935Z,0
2017-10-05T05:37:52.925Z,0
2017-10-05T05:38:52.909Z,0
2017-10-05T05:39:52.567Z,0
2017-10-05T05:40:53.191Z,0
2017-10-05T05:41:52.898Z,0
2017-10-05T05:42:52.842Z,0
2017-10-05T05:43:53.143Z,0
2017-10-05T05:44:52.801Z,0
2017-10-05T05:45:53.128Z,0
2017-10-05T05:46:52.775Z,0
2017-10-05T05:47:52.756Z,0
2017-10-05T05:48:53.379Z,0
2017-10-05T05:49:52.724Z,0
2017-10-05T05:50:53.029Z,0
2017-10-05T05:51:52.691Z,0
2017-10-05T05:52:52.348Z,0
2017-10-05T05:53:52.658Z,0
2017-10-05T05:54:52.645Z,0
2017-10-05T05:55:52.296Z,0
2017-10-05T05:56:52.607Z,0
2017-10-05T05:57:52.914Z,0
2017-10-05T05:58:52.565Z,0
2017-10-05T05:59:52.887Z,0
2017-10-05T06:00:52.861Z,0
2017-10-05T06:01:52.527Z,0
2017-10-05T06:02:52.516Z,0
2017-10-05T06:03:52.545Z,0
2017-10-05T06:04:52.474Z,0
2017-10-05T06:05:52.788Z,0
2017-10-05T06:06:52.760Z,0
2017-10-05T06:07:52.750Z,0
2017-10-05T06:08:52.721Z,0
2017-10-05T06:09:52.408Z,0
2017-10-05T06:10:52.378Z,0
2017-10-05T06:11:52.567Z,0
2017-10-05T06:12:52.990Z,0
2017-10-05T06:13:52.327Z,0
2017-10-05T06:14:52.628Z,0
2017-10-05T06:15:52.620Z,0
2017-10-05T06:16:52.600Z,0
2017-10-05T06:17:52.580Z,0
2017-10-05T06:18:52.251Z,0
2017-10-05T06:19:52.555Z,0
2017-10-05T06:20:51.890Z,0
2017-10-05T06:21:52.191Z,0
2017-10-05T06:22:51.859Z,0
2017-10-05T06:23:52.483Z,0
2017-10-05T06:24:51.847Z,0
2017-10-05T06:25:52.455Z,0
2017-10-05T06:26:52.448Z,0
2017-10-05T06:27:52.437Z,0
2017-10-05T06:28:52.109Z,5
2017-10-05T06:29:52.071Z,5
2017-10-05T06:30:52.366Z,0
2017-10-05T06:31:52.354Z,5
2017-10-05T06:32:52.652Z,5
2017-10-05T06:33:51.996Z,10
2017-10-05T06:34:52.303Z,10
2017-10-05T06:35:52.297Z,5
2017-10-05T06:36:51.629Z,5
2017-10-05T06:37:51.934Z,5
2017-10-05T06:38:52.554Z,5
2017-10-05T06:39:52.235Z,5
2017-10-05T06:40:52.201Z,5
2017-10-05T06:41:51.869Z,10
2017-10-05T06:42:51.535Z,10
2017-10-05T06:43:52.156Z,10
2017-10-05T06:44:51.496Z,10
2017-10-05T06:45:51.809Z,15
2017-10-05T06:46:51.786Z,15
2017-10-05T06:47:52.093Z,15
2017-10-05T06:48:52.396Z,15
2017-10-05T06:49:52.059Z,15
2017-10-05T06:50:51.391Z,20
2017-10-05T06:51:52.025Z,15
2017-10-05T06:52:52.013Z,20
2017-10-05T06:53:51.987Z,20
2017-10-05T06:54:51.985Z,20
2017-10-05T06:55:51.989Z,20
2017-10-05T06:56:51.626Z,15
2017-10-05T06:57:51.922Z,15
2017-10-05T06:58:51.596Z,25
2017-10-05T06:59:52.219Z,20
2017-10-05T07:00:51.873Z,25
2017-10-05T07:01:51.551Z,25
2017-10-05T07:02:51.206Z,20
2017-10-05T07:03:51.831Z,30
2017-10-05T07:04:51.495Z,30
2017-10-05T07:05:51.794Z,25
2017-10-05T07:06:51.457Z,20
2017-10-05T07:07:51.443Z,20
2017-10-05T07:08:51.425Z,20
2017-10-05T07:09:51.732Z,15
2017-10-05T07:10:51.071Z,20
2017-10-05T07:11:52.013Z,20
2017-10-05T07:12:51.363Z,20
2017-10-05T07:13:51.352Z,25
2017-10-05T07:14:51.012Z,25
2017-10-05T07:15:51.636Z,25
2017-10-05T07:16:51.616Z,35
2017-10-05T07:17:51.934Z,25
2017-10-05T07:18:51.270Z,20
2017-10-05T07:19:51.578Z,15
2017-10-05T07:20:51.240Z,20
2017-10-05T07:21:50.578Z,10
2017-10-05T07:22:51.849Z,15
2017-10-05T07:23:51.184Z,15
2017-10-05T07:24:51.485Z,15
2017-10-05T07:25:50.831Z,15
2017-10-05T07:26:51.458Z,25
2017-10-05T07:27:51.461Z,40
2017-10-05T07:28:51.508Z,35
2017-10-05T07:29:51.093Z,35
2017-10-05T07:30:51.087Z,40
2017-10-05T07:31:51.378Z,30
2017-10-05T07:32:51.046Z,30
2017-10-05T07:33:51.356Z,30
2017-10-05T07:34:51.326Z,30
2017-10-05T07:35:51.314Z,30
2017-10-05T07:36:51.297Z,25
2017-10-05T07:37:51.607Z,25
2017-10-05T07:38:50.936Z,25
2017-10-05T07:39:51.582Z,25
2017-10-05T07:40:50.596Z,25
2017-10-05T07:41:50.252Z,25
2017-10-05T07:42:50.877Z,25
2017-10-05T07:43:50.543Z,25
2017-10-05T07:44:50.849Z,30
2017-10-05T07:45:51.481Z,25
2017-10-05T07:46:51.134Z,20
2017-10-05T07:47:51.118Z,25
2017-10-05T07:48:50.462Z,40
2017-10-05T07:49:50.443Z,35
2017-10-05T07:50:51.073Z,40
2017-10-05T07:51:50.729Z,35
2017-10-05T07:52:50.718Z,30
2017-10-05T07:53:51.022Z,40
2017-10-05T07:54:50.363Z,40
2017-10-05T07:55:50.360Z,40
2017-10-05T07:56:50.336Z,50
2017-10-05T07:57:51.278Z,45
2017-10-05T07:58:49.987Z,50
2017-10-05T07:59:50.615Z,35
2017-10-05T08:00:51.243Z,40
2017-10-05T08:01:50.260Z,45
2017-10-05T08:02:50.575Z,40
2017-10-05T08:03:50.879Z,40
2017-10-05T08:04:50.850Z,25
2017-10-05T08:05:50.515Z,35
2017-10-05T08:06:50.817Z,40
2017-10-05T08:07:50.481Z,35
2017-10-05T08:08:50.477Z,35
2017-10-05T08:09:50.444Z,35
2017-10-05T08:10:51.073Z,30
2017-10-05T08:11:51.257Z,30
2017-10-05T08:12:50.722Z,25
2017-10-05T08:13:50.705Z,35
2017-10-05T08:14:50.685Z,35
2017-10-05T08:15:50.357Z,40
2017-10-05T08:16:50.013Z,45
2017-10-05T08:17:50.648Z,35
2017-10-05T08:18:50.304Z,40
2017-10-05T08:19:50.618Z,55
2017-10-05T08:20:50.304Z,55
2017-10-05T08:21:50.262Z,70
2017-10-05T08:22:50.241Z,60
2017-10-05T08:23:50.545Z,65
2017-10-05T08:24:50.533Z,100
2017-10-05T08:25:50.213Z,65
2017-10-05T08:26:50.505Z,65
2017-10-05T08:27:50.811Z,40
2017-10-05T08:28:50.476Z,35
2017-10-05T08:29:50.129Z,30
2017-10-05T08:30:50.125Z,40
2017-10-05T08:31:50.421Z,35
2017-10-05T08:32:50.410Z,40
2017-10-05T08:33:49.753Z,35
2017-10-05T08:34:50.385Z,35
2017-10-05T08:35:49.720Z,40
2017-10-05T08:36:50.678Z,30
2017-10-05T08:37:50.649Z,35
2017-10-05T08:38:49.994Z,35
2017-10-05T08:39:50.621Z,55
2017-10-05T08:40:50.295Z,50
2017-10-05T08:41:50.267Z,50
2017-10-05T08:42:49.602Z,30
2017-10-05T08:43:49.588Z,40
2017-10-05T08:44:49.253Z,30
2017-10-05T08:45:50.203Z,40
2017-10-05T08:46:49.861Z,40
2017-10-05T08:47:49.524Z,45
2017-10-05T08:48:50.154Z,50
2017-10-05T08:49:50.456Z,40
2017-10-05T08:50:50.126Z,30
2017-10-05T08:51:50.113Z,30
2017-10-05T08:52:49.770Z,50
2017-10-05T08:53:50.080Z,45
2017-10-05T08:54:50.061Z,60
2017-10-05T08:55:49.405Z,50
2017-10-05T08:56:49.716Z,45
2017-10-05T08:57:49.378Z,65
2017-10-05T08:58:50.010Z,45
2017-10-05T08:59:49.347Z,40
2017-10-05T09:00:49.993Z,50
2017-10-05T09:01:49.967Z,45
2017-10-05T09:02:49.944Z,70
2017-10-05T09:03:49.610Z,65
2017-10-05T09:04:49.273Z,70
2017-10-05T09:05:49.623Z,115
2017-10-05T09:06:49.885Z,50
2017-10-05T09:07:49.541Z,25
2017-10-05T09:08:49.536Z,30
2017-10-05T09:09:49.196Z,25
2017-10-05T09:10:49.504Z,90
2017-10-05T09:11:49.801Z,90
2017-10-05T09:12:49.467Z,55
2017-10-05T09:13:49.124Z,65
2017-10-05T09:14:50.104Z,50
2017-10-05T09:15:49.114Z,35
2017-10-05T09:16:49.737Z,35
2017-10-05T09:17:49.071Z,40
2017-10-05T09:18:49.063Z,45
2017-10-05T09:19:49.038Z,75
2017-10-05T09:20:49.663Z,135
2017-10-05T09:21:49.328Z,80
2017-10-05T09:22:49.313Z,70
2017-10-05T09:23:49.310Z,115
2017-10-05T09:24:49.278Z,85
2017-10-05T09:25:49.593Z,90
2017-10-05T09:26:49.255Z,85
2017-10-05T09:27:49.563Z,95
2017-10-05T09:28:49.549Z,70
2017-10-05T09:29:49.220Z,35
2017-10-05T09:30:49.194Z,25
2017-10-05T09:31:49.183Z,30
2017-10-05T09:32:49.817Z,35
2017-10-05T09:33:49.159Z,30
2017-10-05T09:34:49.133Z,30
2017-10-05T09:35:49.120Z,45
2017-10-05T09:36:49.424Z,30
2017-10-05T09:37:49.090Z,30
2017-10-05T09:38:48.758Z,55
2017-10-05T09:39:49.711Z,45
2017-10-05T09:40:48.406Z,65
2017-10-05T09:41:49.036Z,75
2017-10-05T09:42:49.661Z,60
2017-10-05T09:43:49.008Z,85
2017-10-05T09:44:49.302Z,70
2017-10-05T09:45:48.672Z,65
2017-10-05T09:46:48.643Z,100
2017-10-05T09:47:49.610Z,145
2017-10-05T09:48:48.935Z,290
2017-10-05T09:49:48.918Z,145
2017-10-05T09:50:49.223Z,300
2017-10-05T09:51:48.894Z,205
2017-10-05T09:52:49.194Z,215
2017-10-05T09:53:48.858Z,235
2017-10-05T09:54:48.839Z,270
2017-10-05T09:55:48.841Z,190
2017-10-05T09:56:48.513Z,195
2017-10-05T09:57:49.447Z,170
2017-10-05T09:58:48.796Z,210
2017-10-05T09:59:48.775Z,185
2017-10-05T10:00:49.076Z,130
2017-10-05T10:01:49.386Z,110
2017-10-05T10:02:48.414Z,120
2017-10-05T10:03:48.392Z,105
2017-10-05T10:04:49.026Z,80
2017-10-05T10:05:48.369Z,100
2017-10-05T10:06:48.689Z,85
2017-10-05T10:07:48.672Z,90
2017-10-05T10:08:48.330Z,120
2017-10-05T10:09:48.637Z,195
2017-10-05T10:10:48.624Z,285
2017-10-05T10:11:48.811Z,265
2017-10-05T10:12:48.915Z,180
2017-10-05T10:13:48.576Z,105
2017-10-05T10:14:48.248Z,95
2017-10-05T10:15:48.547Z,65
2017-10-05T10:16:48.544Z,55
2017-10-05T10:17:48.848Z,85
2017-10-05T10:18:48.196Z,65
2017-10-05T10:19:48.807Z,70
2017-10-05T10:20:48.166Z,85
2017-10-05T10:21:48.795Z,195
2017-10-05T10:22:48.127Z,155
2017-10-05T10:23:48.119Z,155
2017-10-05T10:24:48.752Z,145
2017-10-05T10:25:48.418Z,165
2017-10-05T10:26:48.401Z,220
2017-10-05T10:27:48.381Z,140
2017-10-05T10:28:49.016Z,190
2017-10-05T10:29:47.714Z,165
2017-10-05T10:30:48.345Z,155
2017-10-05T10:31:48.647Z,155
2017-10-05T10:32:48.634Z,140
2017-10-05T10:33:48.302Z,130
2017-10-05T10:34:47.968Z,120
2017-10-05T10:35:48.597Z,140
2017-10-05T10:36:48.270Z,140
2017-10-05T10:37:47.928Z,130
2017-10-05T10:38:48.550Z,180
2017-10-05T10:39:48.222Z,145
2017-10-05T10:40:48.580Z,395
2017-10-05T10:41:48.852Z,750
2017-10-05T10:42:48.179Z,525
2017-10-05T10:43:48.181Z,430
2017-10-05T10:44:48.153Z,350
2017-10-05T10:45:48.456Z,415
2017-10-05T10:46:48.129Z,315
2017-10-05T10:47:47.824Z,350
2017-10-05T10:48:47.473Z,270
2017-10-05T10:49:48.092Z,315
2017-10-05T10:50:48.072Z,315
2017-10-05T10:51:48.070Z,335
2017-10-05T10:52:47.724Z,215
2017-10-05T10:53:48.035Z,325
2017-10-05T10:54:47.714Z,395
2017-10-05T10:55:48.327Z,265
2017-10-05T10:56:47.996Z,290
2017-10-05T10:57:48.303Z,290
2017-10-05T10:58:47.657Z,555
2017-10-05T10:59:48.276Z,330
2017-10-05T11:00:47.940Z,230
2017-10-05T11:01:47.933Z,340
2017-10-05T11:02:47.916Z,345
2017-10-05T11:03:48.218Z,350
2017-10-05T11:04:47.574Z,290
2017-10-05T11:05:47.875Z,640
2017-10-05T11:06:47.872Z,345
2017-10-05T11:07:47.534Z,320
2017-10-05T11:08:48.497Z,475
2017-10-05T11:09:47.514Z,275
2017-10-05T11:10:48.149Z,285
2017-10-05T11:11:48.127Z,380
2017-10-05T11:12:48.118Z,260
2017-10-05T11:13:47.787Z,250
2017-10-05T11:14:47.441Z,170
2017-10-05T11:15:48.076Z,315
2017-10-05T11:16:47.423Z,280
2017-10-05T11:17:47.141Z,350
2017-10-05T11:18:47.745Z,725
2017-10-05T11:19:47.417Z,195
2017-10-05T11:20:48.025Z,325
2017-10-05T11:21:47.701Z,180
2017-10-05T11:22:47.358Z,250
2017-10-05T11:23:47.989Z,350
2017-10-05T11:24:47.331Z,175
2017-10-05T11:25:48.293Z,215
2017-10-05T11:26:47.950Z,305
2017-10-05T11:27:47.956Z,270
2017-10-05T11:28:47.928Z,215
2017-10-05T11:29:47.279Z,235
2017-10-05T11:30:47.582Z,395
2017-10-05T11:31:48.208Z,240
2017-10-05T11:32:47.898Z,385
2017-10-05T11:33:47.230Z,405
2017-10-05T11:34:47.862Z,320
2017-10-05T11:35:47.878Z,305
2017-10-05T11:36:47.204Z,220
2017-10-05T11:37:46.866Z,175
2017-10-05T11:38:47.817Z,145
2017-10-05T11:39:47.485Z,165
2017-10-05T11:40:47.154Z,170
2017-10-05T11:41:47.466Z,140
2017-10-05T11:42:47.459Z,150
2017-10-05T11:43:47.110Z,155
2017-10-05T11:44:47.106Z,165
2017-10-05T11:45:47.418Z,200
2017-10-05T11:46:47.733Z,260
2017-10-05T11:47:47.390Z,260
2017-10-05T11:48:47.052Z,315
2017-10-05T11:49:47.697Z,180
2017-10-05T11:50:47.357Z,215
2017-10-05T11:51:47.337Z,170
2017-10-05T11:52:47.657Z,155
2017-10-05T11:53:47.346Z,165
2017-10-05T11:54:47.634Z,1345
2017-10-05T11:55:47.939Z,1365
2017-10-05T11:56:47.618Z,1375
2017-10-05T11:57:47.584Z,915
2017-10-05T11:58:47.589Z,810
2017-10-05T11:59:47.243Z,280
2017-10-05T12:00:47.582Z,285
2017-10-05T12:01:47.539Z,255
2017-10-05T12:02:46.575Z,280
2017-10-05T12:03:47.905Z,1665
2017-10-05T12:04:47.197Z,525
2017-10-05T12:05:47.496Z,980
2017-10-05T12:06:46.531Z,375
2017-10-05T12:07:47.805Z,380
2017-10-05T12:08:47.482Z,345
2017-10-05T12:09:46.822Z,400
2017-10-05T12:10:46.816Z,400
2017-10-05T12:11:47.331Z,330
2017-10-05T12:12:47.115Z,290
2017-10-05T12:13:47.752Z,360
2017-10-05T12:14:47.087Z,715
2017-10-05T12:15:47.093Z,455
2017-10-05T12:16:47.401Z,320
2017-10-05T12:17:47.382Z,305
2017-10-05T12:18:47.377Z,350
2017-10-05T12:19:47.046Z,215
2017-10-05T12:20:47.345Z,205
2017-10-05T12:21:47.348Z,210
2017-10-05T12:22:47.324Z,255
2017-10-05T12:23:47.327Z,310
2017-10-05T12:24:46.344Z,235
2017-10-05T12:25:47.302Z,165
2017-10-05T12:26:47.288Z,255
2017-10-05T12:27:47.280Z,1460
2017-10-05T12:28:46.636Z,880
2017-10-05T12:29:46.928Z,1560
2017-10-05T12:30:47.240Z,1435
2017-10-05T12:31:47.234Z,1430
2017-10-05T12:32:47.218Z,1440
2017-10-05T12:33:46.571Z,1420
2017-10-05T12:34:47.212Z,1415
2017-10-05T12:35:46.887Z,1405
2017-10-05T12:36:46.860Z,815
2017-10-05T12:37:46.532Z,470
2017-10-05T12:38:46.521Z,1665
2017-10-05T12:39:47.160Z,1300
2017-10-05T12:40:46.835Z,1515
2017-10-05T12:41:47.144Z,1500
2017-10-05T12:42:47.163Z,1380
2017-10-05T12:43:46.492Z,1355
2017-10-05T12:44:46.813Z,1375
2017-10-05T12:45:46.480Z,1405
2017-10-05T12:46:46.808Z,1390
2017-10-05T12:47:46.792Z,1375
2017-10-05T12:48:46.790Z,1405
2017-10-05T12:49:46.793Z,310
2017-10-05T12:50:46.137Z,1515
2017-10-05T12:51:46.778Z,605
2017-10-05T12:52:46.773Z,655
2017-10-05T12:53:46.777Z,235
2017-10-05T12:54:46.445Z,190
2017-10-05T12:55:46.123Z,185
2017-10-05T12:56:46.760Z,215
2017-10-05T12:57:47.398Z,270
2017-10-05T12:58:47.083Z,160
2017-10-05T12:59:47.065Z,220
2017-10-05T13:00:47.403Z,150
2017-10-05T13:01:47.049Z,135
2017-10-05T13:02:47.360Z,130
2017-10-05T13:03:47.368Z,170
2017-10-05T13:04:47.387Z,135
2017-10-05T13:05:46.703Z,195
2017-10-05T13:06:46.376Z,1250
2017-10-05T13:07:46.058Z,1290
2017-10-05T13:08:46.687Z,1315
2017-10-05T13:09:46.685Z,1325
2017-10-05T13:10:46.698Z,1320
2017-10-05T13:11:46.344Z,1275
2017-10-05T13:12:46.657Z,1265
2017-10-05T13:13:46.979Z,1340
2017-10-05T13:14:46.981Z,780
2017-10-05T13:15:46.329Z,730
2017-10-05T13:16:46.321Z,270
2017-10-05T13:17:46.642Z,210
2017-10-05T13:18:46.301Z,120
2017-10-05T13:19:46.932Z,80
2017-10-05T13:20:46.617Z,90
2017-10-05T13:21:46.597Z,75
2017-10-05T13:22:46.272Z,65
2017-10-05T13:23:46.592Z,70
2017-10-05T13:24:46.581Z,65
2017-10-05T13:25:47.209Z,90
2017-10-05T13:26:46.569Z,65
2017-10-05T13:27:46.882Z,60
2017-10-05T13:28:47.186Z,90
2017-10-05T13:29:46.538Z,125
2017-10-05T13:30:46.533Z,155
2017-10-05T13:31:46.537Z,160
2017-10-05T13:32:46.837Z,160
2017-10-05T13:33:46.838Z,180
2017-10-05T13:34:47.142Z,185
2017-10-05T13:35:46.492Z,350
2017-10-05T13:36:46.473Z,250
2017-10-05T13:37:46.472Z,240
2017-10-05T13:38:47.094Z,250
2017-10-05T13:39:46.448Z,300
2017-10-05T13:40:46.112Z,915
2017-10-05T13:41:46.423Z,480
2017-10-05T13:42:46.447Z,130
2017-10-05T13:43:46.442Z,90
2017-10-05T13:44:46.411Z,90
2017-10-05T13:45:46.381Z,105
2017-10-05T13:46:47.017Z,145
2017-10-05T13:47:46.045Z,200
2017-10-05T13:48:46.035Z,500
2017-10-05T13:49:46.337Z,980
2017-10-05T13:50:46.332Z,1020
2017-10-05T13:51:46.636Z,1005
2017-10-05T13:52:46.949Z,990
2017-10-05T13:53:46.296Z,975
2017-10-05T13:54:45.967Z,940
2017-10-05T13:55:46.587Z,910
2017-10-05T13:56:46.918Z,950
2017-10-05T13:57:46.265Z,975
2017-10-05T13:58:46.577Z,960
2017-10-05T13:59:46.241Z,985
2017-10-05T14:00:46.256Z,1040
2017-10-05T14:01:46.232Z,1035
2017-10-05T14:02:46.213Z,990
2017-10-05T14:03:46.210Z,965
2017-10-05T14:04:46.217Z,965
2017-10-05T14:05:46.201Z,960
2017-10-05T14:06:46.189Z,950
2017-10-05T14:07:46.183Z,930
2017-10-05T14:08:46.498Z,885
2017-10-05T14:09:46.496Z,850
2017-10-05T14:10:46.171Z,830
2017-10-05T14:11:46.571Z,820
2017-10-05T14:12:46.156Z,800
2017-10-05T14:13:45.832Z,800
2017-10-05T14:14:46.164Z,810
2017-10-05T14:15:45.822Z,805
2017-10-05T14:16:45.824Z,800
2017-10-05T14:17:46.472Z,790
2017-10-05T14:18:46.767Z,780
2017-10-05T14:19:46.476Z,785